sensor_id;sensor_type;location;lat;lon;timestamp;P1;durP1;ratioP1;P2;durP2;ratioP2
27977;SDS011;15314;49.248;6.968;2022-07-15T00:00:43;14.70;;;13.55;;
27977;SDS011;15314;49.248;6.968;2022-07-15T00:01:45;14.68;;;13.50;;
27977;SDS011;15314;49.248;6.968;2022-07-15T00:02:45;14.73;;;13.55;;
27977;SDS011;15314;49.248;6.968;2022-07-15T00:03:47;14.90;;;13.73;;
27977;SDS011;15314;49.248;6.968;2022-07-15T00:04:48;14.85;;;13.85;;
27977;SDS011;15314;49.248;6.968;2022-07-15T00:05:49;14.57;;;13.45;;
27977;SDS011;15314;49.248;6.968;2022-07-15T00:06:49;14.13;;;13.23;;
27977;SDS011;15314;49.248;6.968;2022-07-15T00:07:50;14.40;;;13.32;;
27977;SDS011;15314;49.248;6.968;2022-07-15T00:08:51;14.40;;;13.40;;
27977;SDS011;15314;49.248;6.968;2022-07-15T00:09:51;14.88;;;13.75;;
27977;SDS011;15314;49.248;6.968;2022-07-15T00:11:11;14.80;;;13.80;;
27977;SDS011;15314;49.248;6.968;2022-07-15T00:12:11;14.68;;;13.65;;
27977;SDS011;15314;49.248;6.968;2022-07-15T00:13:12;15.05;;;14.00;;
27977;SDS011;15314;49.248;6.968;2022-07-15T00:14:13;14.80;;;13.65;;
27977;SDS011;15314;49.248;6.968;2022-07-15T00:15:13;15.43;;;14.13;;
27977;SDS011;15314;49.248;6.968;2022-07-15T00:16:14;14.85;;;13.70;;
27977;SDS011;15314;49.248;6.968;2022-07-15T00:17:15;14.60;;;13.57;;
27977;SDS011;15314;49.248;6.968;2022-07-15T00:18:15;14.23;;;13.32;;
27977;SDS011;15314;49.248;6.968;2022-07-15T00:19:16;14.43;;;13.43;;
27977;SDS011;15314;49.248;6.968;2022-07-15T00:20:17;15.15;;;14.02;;
27977;SDS011;15314;49.248;6.968;2022-07-15T00:21:19;14.80;;;13.70;;
27977;SDS011;15314;49.248;6.968;2022-07-15T00:22:20;14.77;;;13.57;;
27977;SDS011;15314;49.248;6.968;2022-07-15T00:23:20;14.00;;;13.07;;
27977;SDS011;15314;49.248;6.968;2022-07-15T00:24:21;14.93;;;13.68;;
27977;SDS011;15314;49.248;6.968;2022-07-15T00:25:22;15.02;;;13.93;;
27977;SDS011;15314;49.248;6.968;2022-07-15T00:26:22;14.68;;;13.77;;
27977;SDS011;15314;49.248;6.968;2022-07-15T00:27:23;15.07;;;14.02;;
27977;SDS011;15314;49.248;6.968;2022-07-15T00:28:24;15.10;;;13.93;;
27977;SDS011;15314;49.248;6.968;2022-07-15T00:29:24;15.40;;;14.25;;
27977;SDS011;15314;49.248;6.968;2022-07-15T00:30:32;15.30;;;14.15;;
27977;SDS011;15314;49.248;6.968;2022-07-15T00:31:34;15.00;;;14.00;;
27977;SDS011;15314;49.248;6.968;2022-07-15T00:32:34;15.25;;;13.98;;
27977;SDS011;15314;49.248;6.968;2022-07-15T00:33:35;14.13;;;13.05;;
27977;SDS011;15314;49.248;6.968;2022-07-15T00:34:36;15.02;;;14.02;;
27977;SDS011;15314;49.248;6.968;2022-07-15T00:35:37;15.27;;;14.07;;
27977;SDS011;15314;49.248;6.968;2022-07-15T00:36:38;14.27;;;13.43;;
27977;SDS011;15314;49.248;6.968;2022-07-15T00:37:39;13.88;;;13.18;;
27977;SDS011;15314;49.248;6.968;2022-07-15T00:38:40;15.70;;;14.20;;
27977;SDS011;15314;49.248;6.968;2022-07-15T00:39:41;14.88;;;13.75;;
27977;SDS011;15314;49.248;6.968;2022-07-15T00:40:45;14.75;;;13.57;;
27977;SDS011;15314;49.248;6.968;2022-07-15T00:41:48;14.88;;;13.70;;
27977;SDS011;15314;49.248;6.968;2022-07-15T00:42:49;15.30;;;14.05;;
27977;SDS011;15314;49.248;6.968;2022-07-15T00:43:50;15.23;;;14.13;;
27977;SDS011;15314;49.248;6.968;2022-07-15T00:44:50;14.52;;;13.18;;
27977;SDS011;15314;49.248;6.968;2022-07-15T00:45:51;14.10;;;13.15;;
27977;SDS011;15314;49.248;6.968;2022-07-15T00:46:52;14.40;;;13.50;;
27977;SDS011;15314;49.248;6.968;2022-07-15T00:47:54;14.77;;;13.68;;
27977;SDS011;15314;49.248;6.968;2022-07-15T00:48:57;14.65;;;13.50;;
27977;SDS011;15314;49.248;6.968;2022-07-15T00:49:58;15.45;;;14.15;;
27977;SDS011;15314;49.248;6.968;2022-07-15T00:50:58;14.75;;;13.75;;
27977;SDS011;15314;49.248;6.968;2022-07-15T00:51:59;14.63;;;13.52;;
27977;SDS011;15314;49.248;6.968;2022-07-15T00:53:05;15.30;;;13.98;;
27977;SDS011;15314;49.248;6.968;2022-07-15T00:54:21;14.73;;;13.73;;
27977;SDS011;15314;49.248;6.968;2022-07-15T00:55:24;15.38;;;14.20;;
27977;SDS011;15314;49.248;6.968;2022-07-15T00:56:27;15.38;;;14.30;;
27977;SDS011;15314;49.248;6.968;2022-07-15T00:57:28;14.48;;;13.48;;
27977;SDS011;15314;49.248;6.968;2022-07-15T00:58:30;15.60;;;14.30;;
27977;SDS011;15314;49.248;6.968;2022-07-15T00:59:36;13.77;;;12.98;;
27977;SDS011;15314;49.248;6.968;2022-07-15T01:00:38;14.20;;;13.32;;
27977;SDS011;15314;49.248;6.968;2022-07-15T01:01:39;14.73;;;13.73;;
27977;SDS011;15314;49.248;6.968;2022-07-15T01:02:42;14.65;;;13.75;;
27977;SDS011;15314;49.248;6.968;2022-07-15T01:03:49;14.40;;;13.57;;
27977;SDS011;15314;49.248;6.968;2022-07-15T01:04:51;14.77;;;13.68;;
27977;SDS011;15314;49.248;6.968;2022-07-15T01:05:54;14.27;;;13.38;;
27977;SDS011;15314;49.248;6.968;2022-07-15T01:06:55;15.38;;;14.20;;
27977;SDS011;15314;49.248;6.968;2022-07-15T01:07:55;14.05;;;13.23;;
27977;SDS011;15314;49.248;6.968;2022-07-15T01:08:56;15.73;;;14.57;;
27977;SDS011;15314;49.248;6.968;2022-07-15T01:09:56;14.50;;;13.50;;
27977;SDS011;15314;49.248;6.968;2022-07-15T01:10:57;15.13;;;14.00;;
27977;SDS011;15314;49.248;6.968;2022-07-15T01:11:58;14.65;;;13.60;;
27977;SDS011;15314;49.248;6.968;2022-07-15T01:12:58;14.68;;;13.65;;
27977;SDS011;15314;49.248;6.968;2022-07-15T01:14:02;14.35;;;13.50;;
27977;SDS011;15314;49.248;6.968;2022-07-15T01:15:04;14.77;;;13.68;;
27977;SDS011;15314;49.248;6.968;2022-07-15T01:16:05;15.75;;;14.45;;
27977;SDS011;15314;49.248;6.968;2022-07-15T01:17:09;14.68;;;13.68;;
27977;SDS011;15314;49.248;6.968;2022-07-15T01:18:10;14.25;;;13.25;;
27977;SDS011;15314;49.248;6.968;2022-07-15T01:19:11;14.85;;;13.75;;
27977;SDS011;15314;49.248;6.968;2022-07-15T01:20:13;14.98;;;13.85;;
27977;SDS011;15314;49.248;6.968;2022-07-15T01:21:14;14.75;;;13.65;;
27977;SDS011;15314;49.248;6.968;2022-07-15T01:22:15;14.80;;;13.68;;
27977;SDS011;15314;49.248;6.968;2022-07-15T01:23:15;15.10;;;14.10;;
27977;SDS011;15314;49.248;6.968;2022-07-15T01:24:17;15.13;;;13.95;;
27977;SDS011;15314;49.248;6.968;2022-07-15T01:25:17;14.55;;;13.60;;
27977;SDS011;15314;49.248;6.968;2022-07-15T01:26:18;14.70;;;13.68;;
27977;SDS011;15314;49.248;6.968;2022-07-15T01:27:19;14.57;;;13.63;;
27977;SDS011;15314;49.248;6.968;2022-07-15T01:28:19;15.50;;;14.15;;
27977;SDS011;15314;49.248;6.968;2022-07-15T01:29:20;14.63;;;13.48;;
27977;SDS011;15314;49.248;6.968;2022-07-15T01:30:21;14.68;;;13.55;;
27977;SDS011;15314;49.248;6.968;2022-07-15T01:31:22;15.20;;;13.98;;
27977;SDS011;15314;49.248;6.968;2022-07-15T01:32:22;15.23;;;14.10;;
27977;SDS011;15314;49.248;6.968;2022-07-15T01:33:23;15.50;;;14.20;;
27977;SDS011;15314;49.248;6.968;2022-07-15T01:34:24;14.63;;;13.63;;
27977;SDS011;15314;49.248;6.968;2022-07-15T01:35:24;15.15;;;14.15;;
27977;SDS011;15314;49.248;6.968;2022-07-15T01:36:25;15.60;;;14.45;;
27977;SDS011;15314;49.248;6.968;2022-07-15T01:37:25;15.15;;;13.98;;
27977;SDS011;15314;49.248;6.968;2022-07-15T01:38:27;15.25;;;14.00;;
27977;SDS011;15314;49.248;6.968;2022-07-15T01:39:28;15.65;;;14.32;;
27977;SDS011;15314;49.248;6.968;2022-07-15T01:40:29;14.60;;;13.73;;
27977;SDS011;15314;49.248;6.968;2022-07-15T01:41:30;15.02;;;14.02;;
27977;SDS011;15314;49.248;6.968;2022-07-15T01:42:30;14.57;;;13.52;;
27977;SDS011;15314;49.248;6.968;2022-07-15T01:43:31;14.85;;;13.65;;
27977;SDS011;15314;49.248;6.968;2022-07-15T01:44:32;14.23;;;13.35;;
27977;SDS011;15314;49.248;6.968;2022-07-15T01:45:32;15.13;;;14.00;;
27977;SDS011;15314;49.248;6.968;2022-07-15T01:46:33;14.70;;;13.68;;
27977;SDS011;15314;49.248;6.968;2022-07-15T01:47:40;14.98;;;14.07;;
27977;SDS011;15314;49.248;6.968;2022-07-15T01:48:45;14.13;;;13.23;;
27977;SDS011;15314;49.248;6.968;2022-07-15T01:50:04;14.88;;;13.82;;
27977;SDS011;15314;49.248;6.968;2022-07-15T01:51:05;14.15;;;13.35;;
27977;SDS011;15314;49.248;6.968;2022-07-15T01:52:06;14.38;;;13.32;;
27977;SDS011;15314;49.248;6.968;2022-07-15T01:53:09;14.52;;;13.43;;
27977;SDS011;15314;49.248;6.968;2022-07-15T01:54:09;14.52;;;13.43;;
27977;SDS011;15314;49.248;6.968;2022-07-15T01:55:10;15.05;;;13.95;;
27977;SDS011;15314;49.248;6.968;2022-07-15T01:56:11;14.70;;;13.50;;
27977;SDS011;15314;49.248;6.968;2022-07-15T01:57:12;13.88;;;13.00;;
27977;SDS011;15314;49.248;6.968;2022-07-15T01:58:12;15.30;;;14.20;;
27977;SDS011;15314;49.248;6.968;2022-07-15T01:59:13;14.50;;;13.40;;
27977;SDS011;15314;49.248;6.968;2022-07-15T02:00:14;14.82;;;13.77;;
27977;SDS011;15314;49.248;6.968;2022-07-15T02:01:16;14.68;;;13.45;;
27977;SDS011;15314;49.248;6.968;2022-07-15T02:02:18;14.70;;;13.63;;
27977;SDS011;15314;49.248;6.968;2022-07-15T02:03:18;14.70;;;13.80;;
27977;SDS011;15314;49.248;6.968;2022-07-15T02:04:19;14.18;;;13.18;;
27977;SDS011;15314;49.248;6.968;2022-07-15T02:05:21;13.68;;;12.70;;
27977;SDS011;15314;49.248;6.968;2022-07-15T02:06:21;14.32;;;13.32;;
27977;SDS011;15314;49.248;6.968;2022-07-15T02:07:22;14.95;;;13.90;;
27977;SDS011;15314;49.248;6.968;2022-07-15T02:08:23;14.23;;;13.32;;
27977;SDS011;15314;49.248;6.968;2022-07-15T02:09:23;13.88;;;13.05;;
27977;SDS011;15314;49.248;6.968;2022-07-15T02:10:24;13.65;;;12.80;;
27977;SDS011;15314;49.248;6.968;2022-07-15T02:11:25;15.02;;;14.02;;
27977;SDS011;15314;49.248;6.968;2022-07-15T02:12:26;14.68;;;13.63;;
27977;SDS011;15314;49.248;6.968;2022-07-15T02:13:26;14.50;;;13.50;;
27977;SDS011;15314;49.248;6.968;2022-07-15T02:14:27;13.35;;;12.45;;
27977;SDS011;15314;49.248;6.968;2022-07-15T02:15:27;14.13;;;13.10;;
27977;SDS011;15314;49.248;6.968;2022-07-15T02:16:31;14.55;;;13.75;;
27977;SDS011;15314;49.248;6.968;2022-07-15T02:17:33;14.00;;;13.20;;
27977;SDS011;15314;49.248;6.968;2022-07-15T02:18:33;15.30;;;13.88;;
27977;SDS011;15314;49.248;6.968;2022-07-15T02:19:34;14.35;;;13.35;;
27977;SDS011;15314;49.248;6.968;2022-07-15T02:20:35;14.20;;;13.25;;
27977;SDS011;15314;49.248;6.968;2022-07-15T02:21:35;14.45;;;13.57;;
27977;SDS011;15314;49.248;6.968;2022-07-15T02:22:36;14.15;;;13.35;;
27977;SDS011;15314;49.248;6.968;2022-07-15T02:23:37;14.68;;;13.68;;
27977;SDS011;15314;49.248;6.968;2022-07-15T02:24:38;14.75;;;13.55;;
27977;SDS011;15314;49.248;6.968;2022-07-15T02:25:38;14.35;;;13.45;;
27977;SDS011;15314;49.248;6.968;2022-07-15T02:26:39;14.32;;;13.43;;
27977;SDS011;15314;49.248;6.968;2022-07-15T02:27:40;15.20;;;14.10;;
27977;SDS011;15314;49.248;6.968;2022-07-15T02:28:41;15.00;;;13.88;;
27977;SDS011;15314;49.248;6.968;2022-07-15T02:29:42;14.90;;;13.90;;
27977;SDS011;15314;49.248;6.968;2022-07-15T02:30:44;14.90;;;14.00;;
27977;SDS011;15314;49.248;6.968;2022-07-15T02:31:45;14.55;;;13.65;;
27977;SDS011;15314;49.248;6.968;2022-07-15T02:32:46;14.73;;;13.68;;
27977;SDS011;15314;49.248;6.968;2022-07-15T02:33:46;15.10;;;14.10;;
27977;SDS011;15314;49.248;6.968;2022-07-15T02:34:47;14.60;;;13.57;;
27977;SDS011;15314;49.248;6.968;2022-07-15T02:35:47;15.25;;;14.05;;
27977;SDS011;15314;49.248;6.968;2022-07-15T02:36:49;14.57;;;13.48;;
27977;SDS011;15314;49.248;6.968;2022-07-15T02:37:50;14.43;;;13.43;;
27977;SDS011;15314;49.248;6.968;2022-07-15T02:38:51;14.35;;;13.38;;
27977;SDS011;15314;49.248;6.968;2022-07-15T02:39:51;14.48;;;13.35;;
27977;SDS011;15314;49.248;6.968;2022-07-15T02:40:52;14.73;;;13.70;;
27977;SDS011;15314;49.248;6.968;2022-07-15T02:41:53;15.25;;;13.98;;
27977;SDS011;15314;49.248;6.968;2022-07-15T02:42:54;14.77;;;13.68;;
27977;SDS011;15314;49.248;6.968;2022-07-15T02:43:56;15.10;;;13.80;;
27977;SDS011;15314;49.248;6.968;2022-07-15T02:44:59;14.85;;;13.95;;
27977;SDS011;15314;49.248;6.968;2022-07-15T02:46:00;15.15;;;13.98;;
27977;SDS011;15314;49.248;6.968;2022-07-15T02:47:00;14.88;;;13.75;;
27977;SDS011;15314;49.248;6.968;2022-07-15T02:48:01;14.88;;;13.75;;
27977;SDS011;15314;49.248;6.968;2022-07-15T02:49:02;14.40;;;13.32;;
27977;SDS011;15314;49.248;6.968;2022-07-15T02:50:03;14.38;;;13.27;;
27977;SDS011;15314;49.248;6.968;2022-07-15T02:51:05;15.30;;;13.95;;
27977;SDS011;15314;49.248;6.968;2022-07-15T02:52:06;14.50;;;13.63;;
27977;SDS011;15314;49.248;6.968;2022-07-15T02:53:06;15.25;;;14.15;;
27977;SDS011;15314;49.248;6.968;2022-07-15T02:54:07;14.77;;;13.88;;
27977;SDS011;15314;49.248;6.968;2022-07-15T02:55:08;15.35;;;14.30;;
27977;SDS011;15314;49.248;6.968;2022-07-15T02:56:10;15.20;;;14.27;;
27977;SDS011;15314;49.248;6.968;2022-07-15T02:57:11;15.18;;;13.95;;
27977;SDS011;15314;49.248;6.968;2022-07-15T02:58:11;14.90;;;13.60;;
27977;SDS011;15314;49.248;6.968;2022-07-15T02:59:12;14.65;;;13.85;;
27977;SDS011;15314;49.248;6.968;2022-07-15T03:00:13;14.73;;;13.48;;
27977;SDS011;15314;49.248;6.968;2022-07-15T03:01:19;13.95;;;12.82;;
27977;SDS011;15314;49.248;6.968;2022-07-15T03:02:20;13.75;;;12.82;;
27977;SDS011;15314;49.248;6.968;2022-07-15T03:03:20;13.32;;;12.32;;
27977;SDS011;15314;49.248;6.968;2022-07-15T03:04:21;13.23;;;12.40;;
27977;SDS011;15314;49.248;6.968;2022-07-15T03:05:22;13.45;;;12.55;;
27977;SDS011;15314;49.248;6.968;2022-07-15T03:06:22;13.13;;;12.23;;
27977;SDS011;15314;49.248;6.968;2022-07-15T03:07:23;12.98;;;11.90;;
27977;SDS011;15314;49.248;6.968;2022-07-15T03:08:24;13.95;;;12.85;;
27977;SDS011;15314;49.248;6.968;2022-07-15T03:09:25;13.02;;;12.13;;
27977;SDS011;15314;49.248;6.968;2022-07-15T03:10:25;13.43;;;12.50;;
27977;SDS011;15314;49.248;6.968;2022-07-15T03:11:26;13.38;;;12.43;;
27977;SDS011;15314;49.248;6.968;2022-07-15T03:12:26;12.50;;;11.70;;
27977;SDS011;15314;49.248;6.968;2022-07-15T03:13:27;14.05;;;13.05;;
27977;SDS011;15314;49.248;6.968;2022-07-15T03:14:29;13.90;;;13.00;;
27977;SDS011;15314;49.248;6.968;2022-07-15T03:15:29;13.38;;;12.57;;
27977;SDS011;15314;49.248;6.968;2022-07-15T03:16:30;13.20;;;12.30;;
27977;SDS011;15314;49.248;6.968;2022-07-15T03:17:30;13.30;;;12.38;;
27977;SDS011;15314;49.248;6.968;2022-07-15T03:18:31;13.55;;;12.70;;
27977;SDS011;15314;49.248;6.968;2022-07-15T03:19:32;13.93;;;12.73;;
27977;SDS011;15314;49.248;6.968;2022-07-15T03:20:32;13.70;;;12.80;;
27977;SDS011;15314;49.248;6.968;2022-07-15T03:21:33;12.63;;;11.75;;
27977;SDS011;15314;49.248;6.968;2022-07-15T03:22:33;13.55;;;12.65;;
27977;SDS011;15314;49.248;6.968;2022-07-15T03:23:34;14.27;;;13.07;;
27977;SDS011;15314;49.248;6.968;2022-07-15T03:24:35;13.88;;;13.00;;
27977;SDS011;15314;49.248;6.968;2022-07-15T03:25:35;13.65;;;12.75;;
27977;SDS011;15314;49.248;6.968;2022-07-15T03:26:36;13.15;;;12.25;;
27977;SDS011;15314;49.248;6.968;2022-07-15T03:27:37;13.23;;;12.23;;
27977;SDS011;15314;49.248;6.968;2022-07-15T03:28:38;13.40;;;12.40;;
27977;SDS011;15314;49.248;6.968;2022-07-15T03:29:38;12.48;;;11.73;;
27977;SDS011;15314;49.248;6.968;2022-07-15T03:30:39;12.75;;;11.95;;
27977;SDS011;15314;49.248;6.968;2022-07-15T03:31:39;12.93;;;12.20;;
27977;SDS011;15314;49.248;6.968;2022-07-15T03:32:40;13.00;;;12.10;;
27977;SDS011;15314;49.248;6.968;2022-07-15T03:33:41;13.18;;;12.18;;
27977;SDS011;15314;49.248;6.968;2022-07-15T03:34:42;13.38;;;12.48;;
27977;SDS011;15314;49.248;6.968;2022-07-15T03:35:43;13.65;;;12.63;;
27977;SDS011;15314;49.248;6.968;2022-07-15T03:36:44;13.40;;;12.60;;
27977;SDS011;15314;49.248;6.968;2022-07-15T03:37:44;13.30;;;12.50;;
27977;SDS011;15314;49.248;6.968;2022-07-15T03:38:45;13.40;;;12.50;;
27977;SDS011;15314;49.248;6.968;2022-07-15T03:39:47;13.50;;;12.32;;
27977;SDS011;15314;49.248;6.968;2022-07-15T03:40:48;13.30;;;12.40;;
27977;SDS011;15314;49.248;6.968;2022-07-15T03:41:48;13.18;;;12.38;;
27977;SDS011;15314;49.248;6.968;2022-07-15T03:42:49;13.98;;;12.98;;
27977;SDS011;15314;49.248;6.968;2022-07-15T03:43:49;13.38;;;12.38;;
27977;SDS011;15314;49.248;6.968;2022-07-15T03:44:50;13.50;;;12.70;;
27977;SDS011;15314;49.248;6.968;2022-07-15T03:45:50;13.68;;;12.77;;
27977;SDS011;15314;49.248;6.968;2022-07-15T03:46:51;13.50;;;12.68;;
27977;SDS011;15314;49.248;6.968;2022-07-15T03:47:51;13.80;;;12.75;;
27977;SDS011;15314;49.248;6.968;2022-07-15T03:48:53;13.27;;;12.48;;
27977;SDS011;15314;49.248;6.968;2022-07-15T03:49:54;13.50;;;12.60;;
27977;SDS011;15314;49.248;6.968;2022-07-15T03:50:55;13.40;;;12.48;;
27977;SDS011;15314;49.248;6.968;2022-07-15T03:51:55;13.70;;;12.52;;
27977;SDS011;15314;49.248;6.968;2022-07-15T03:52:56;14.98;;;13.73;;
27977;SDS011;15314;49.248;6.968;2022-07-15T03:54:00;13.98;;;13.10;;
27977;SDS011;15314;49.248;6.968;2022-07-15T03:55:02;14.07;;;13.10;;
27977;SDS011;15314;49.248;6.968;2022-07-15T03:56:03;14.50;;;13.40;;
27977;SDS011;15314;49.248;6.968;2022-07-15T03:57:03;14.63;;;13.63;;
27977;SDS011;15314;49.248;6.968;2022-07-15T03:58:04;13.93;;;13.13;;
27977;SDS011;15314;49.248;6.968;2022-07-15T03:59:05;15.05;;;14.02;;
27977;SDS011;15314;49.248;6.968;2022-07-15T04:00:07;14.30;;;13.25;;
27977;SDS011;15314;49.248;6.968;2022-07-15T04:01:08;15.10;;;13.70;;
27977;SDS011;15314;49.248;6.968;2022-07-15T04:02:08;14.75;;;13.55;;
27977;SDS011;15314;49.248;6.968;2022-07-15T04:03:09;14.65;;;13.48;;
27977;SDS011;15314;49.248;6.968;2022-07-15T04:04:09;14.55;;;13.55;;
27977;SDS011;15314;49.248;6.968;2022-07-15T04:05:11;14.82;;;13.82;;
27977;SDS011;15314;49.248;6.968;2022-07-15T04:06:12;14.68;;;13.68;;
27977;SDS011;15314;49.248;6.968;2022-07-15T04:07:12;15.35;;;14.20;;
27977;SDS011;15314;49.248;6.968;2022-07-15T04:08:13;15.35;;;14.10;;
27977;SDS011;15314;49.248;6.968;2022-07-15T04:09:13;15.13;;;14.13;;
27977;SDS011;15314;49.248;6.968;2022-07-15T04:10:14;16.00;;;14.82;;
27977;SDS011;15314;49.248;6.968;2022-07-15T04:11:15;15.20;;;14.10;;
27977;SDS011;15314;49.248;6.968;2022-07-15T04:12:16;17.67;;;16.08;;
27977;SDS011;15314;49.248;6.968;2022-07-15T04:13:16;16.90;;;15.48;;
27977;SDS011;15314;49.248;6.968;2022-07-15T04:14:19;16.95;;;15.35;;
27977;SDS011;15314;49.248;6.968;2022-07-15T04:15:22;16.35;;;15.13;;
27977;SDS011;15314;49.248;6.968;2022-07-15T04:16:22;15.70;;;14.80;;
27977;SDS011;15314;49.248;6.968;2022-07-15T04:17:23;15.80;;;14.80;;
27977;SDS011;15314;49.248;6.968;2022-07-15T04:18:24;15.60;;;14.35;;
27977;SDS011;15314;49.248;6.968;2022-07-15T04:19:24;15.25;;;14.15;;
27977;SDS011;15314;49.248;6.968;2022-07-15T04:20:25;16.00;;;14.75;;
27977;SDS011;15314;49.248;6.968;2022-07-15T04:21:26;15.80;;;14.68;;
27977;SDS011;15314;49.248;6.968;2022-07-15T04:22:26;16.30;;;14.93;;
27977;SDS011;15314;49.248;6.968;2022-07-15T04:23:27;15.88;;;14.77;;
27977;SDS011;15314;49.248;6.968;2022-07-15T04:24:28;15.68;;;14.63;;
27977;SDS011;15314;49.248;6.968;2022-07-15T04:25:28;15.90;;;14.65;;
27977;SDS011;15314;49.248;6.968;2022-07-15T04:26:29;15.18;;;14.10;;
27977;SDS011;15314;49.248;6.968;2022-07-15T04:27:30;16.23;;;14.90;;
27977;SDS011;15314;49.248;6.968;2022-07-15T04:28:30;15.70;;;14.25;;
27977;SDS011;15314;49.248;6.968;2022-07-15T04:29:32;16.02;;;14.73;;
27977;SDS011;15314;49.248;6.968;2022-07-15T04:30:32;15.45;;;14.20;;
27977;SDS011;15314;49.248;6.968;2022-07-15T04:31:33;15.80;;;14.27;;
27977;SDS011;15314;49.248;6.968;2022-07-15T04:32:34;15.35;;;13.98;;
27977;SDS011;15314;49.248;6.968;2022-07-15T04:33:35;15.38;;;14.07;;
27977;SDS011;15314;49.248;6.968;2022-07-15T04:34:35;14.90;;;13.77;;
27977;SDS011;15314;49.248;6.968;2022-07-15T04:35:36;15.02;;;13.90;;
27977;SDS011;15314;49.248;6.968;2022-07-15T04:36:38;14.98;;;13.75;;
27977;SDS011;15314;49.248;6.968;2022-07-15T04:37:39;14.95;;;13.85;;
27977;SDS011;15314;49.248;6.968;2022-07-15T04:38:39;15.18;;;14.10;;
27977;SDS011;15314;49.248;6.968;2022-07-15T04:39:40;14.82;;;13.63;;
27977;SDS011;15314;49.248;6.968;2022-07-15T04:40:41;15.52;;;14.30;;
27977;SDS011;15314;49.248;6.968;2022-07-15T04:41:42;15.82;;;14.43;;
27977;SDS011;15314;49.248;6.968;2022-07-15T04:42:43;15.05;;;13.98;;
27977;SDS011;15314;49.248;6.968;2022-07-15T04:43:44;14.82;;;13.82;;
27977;SDS011;15314;49.248;6.968;2022-07-15T04:44:45;14.80;;;13.35;;
27977;SDS011;15314;49.248;6.968;2022-07-15T04:45:47;14.93;;;13.43;;
27977;SDS011;15314;49.248;6.968;2022-07-15T04:46:47;14.43;;;13.23;;
27977;SDS011;15314;49.248;6.968;2022-07-15T04:47:48;13.65;;;12.75;;
27977;SDS011;15314;49.248;6.968;2022-07-15T04:48:49;14.55;;;13.40;;
27977;SDS011;15314;49.248;6.968;2022-07-15T04:50:08;14.30;;;13.07;;
27977;SDS011;15314;49.248;6.968;2022-07-15T04:51:27;14.68;;;13.48;;
27977;SDS011;15314;49.248;6.968;2022-07-15T04:52:28;14.00;;;13.10;;
27977;SDS011;15314;49.248;6.968;2022-07-15T04:53:30;14.43;;;13.23;;
27977;SDS011;15314;49.248;6.968;2022-07-15T04:54:31;14.45;;;13.20;;
27977;SDS011;15314;49.248;6.968;2022-07-15T04:55:32;14.25;;;13.18;;
27977;SDS011;15314;49.248;6.968;2022-07-15T04:56:33;15.57;;;14.43;;
27977;SDS011;15314;49.248;6.968;2022-07-15T04:57:33;14.15;;;13.05;;
27977;SDS011;15314;49.248;6.968;2022-07-15T04:58:34;14.60;;;13.50;;
27977;SDS011;15314;49.248;6.968;2022-07-15T04:59:35;14.93;;;13.82;;
27977;SDS011;15314;49.248;6.968;2022-07-15T05:00:35;14.60;;;13.30;;
27977;SDS011;15314;49.248;6.968;2022-07-15T05:01:36;14.85;;;13.65;;
27977;SDS011;15314;49.248;6.968;2022-07-15T05:02:36;13.63;;;12.85;;
27977;SDS011;15314;49.248;6.968;2022-07-15T05:03:37;14.40;;;13.18;;
27977;SDS011;15314;49.248;6.968;2022-07-15T05:04:38;14.32;;;13.43;;
27977;SDS011;15314;49.248;6.968;2022-07-15T05:05:39;14.57;;;13.40;;
27977;SDS011;15314;49.248;6.968;2022-07-15T05:06:39;14.32;;;13.13;;
27977;SDS011;15314;49.248;6.968;2022-07-15T05:07:40;14.95;;;13.75;;
27977;SDS011;15314;49.248;6.968;2022-07-15T05:08:41;13.80;;;12.70;;
27977;SDS011;15314;49.248;6.968;2022-07-15T05:09:41;14.90;;;13.82;;
27977;SDS011;15314;49.248;6.968;2022-07-15T05:10:42;15.43;;;13.95;;
27977;SDS011;15314;49.248;6.968;2022-07-15T05:11:43;15.55;;;14.40;;
27977;SDS011;15314;49.248;6.968;2022-07-15T05:12:43;15.70;;;14.50;;
27977;SDS011;15314;49.248;6.968;2022-07-15T05:13:44;15.32;;;14.18;;
27977;SDS011;15314;49.248;6.968;2022-07-15T05:14:44;14.98;;;13.77;;
27977;SDS011;15314;49.248;6.968;2022-07-15T05:15:45;14.70;;;13.60;;
27977;SDS011;15314;49.248;6.968;2022-07-15T05:16:45;14.18;;;13.15;;
27977;SDS011;15314;49.248;6.968;2022-07-15T05:17:46;14.57;;;13.38;;
27977;SDS011;15314;49.248;6.968;2022-07-15T05:18:47;14.77;;;13.73;;
27977;SDS011;15314;49.248;6.968;2022-07-15T05:19:47;14.77;;;13.77;;
27977;SDS011;15314;49.248;6.968;2022-07-15T05:20:48;14.68;;;13.60;;
27977;SDS011;15314;49.248;6.968;2022-07-15T05:21:48;14.60;;;13.52;;
27977;SDS011;15314;49.248;6.968;2022-07-15T05:22:49;14.75;;;13.73;;
27977;SDS011;15314;49.248;6.968;2022-07-15T05:23:50;15.27;;;13.98;;
27977;SDS011;15314;49.248;6.968;2022-07-15T05:24:50;14.27;;;13.27;;
27977;SDS011;15314;49.248;6.968;2022-07-15T05:25:51;14.80;;;13.70;;
27977;SDS011;15314;49.248;6.968;2022-07-15T05:26:52;13.32;;;12.52;;
27977;SDS011;15314;49.248;6.968;2022-07-15T05:27:52;13.70;;;12.90;;
27977;SDS011;15314;49.248;6.968;2022-07-15T05:28:53;15.23;;;14.07;;
27977;SDS011;15314;49.248;6.968;2022-07-15T05:29:54;15.00;;;13.95;;
27977;SDS011;15314;49.248;6.968;2022-07-15T05:30:54;14.65;;;13.50;;
27977;SDS011;15314;49.248;6.968;2022-07-15T05:31:55;14.80;;;13.38;;
27977;SDS011;15314;49.248;6.968;2022-07-15T05:32:55;14.45;;;13.30;;
27977;SDS011;15314;49.248;6.968;2022-07-15T05:33:56;15.55;;;14.38;;
27977;SDS011;15314;49.248;6.968;2022-07-15T05:34:57;15.10;;;13.95;;
27977;SDS011;15314;49.248;6.968;2022-07-15T05:35:57;16.05;;;14.50;;
27977;SDS011;15314;49.248;6.968;2022-07-15T05:36:58;14.65;;;13.55;;
27977;SDS011;15314;49.248;6.968;2022-07-15T05:37:59;14.90;;;13.68;;
27977;SDS011;15314;49.248;6.968;2022-07-15T05:39:00;15.07;;;13.82;;
27977;SDS011;15314;49.248;6.968;2022-07-15T05:40:00;15.05;;;14.00;;
27977;SDS011;15314;49.248;6.968;2022-07-15T05:41:01;15.10;;;13.73;;
27977;SDS011;15314;49.248;6.968;2022-07-15T05:42:01;15.32;;;14.13;;
27977;SDS011;15314;49.248;6.968;2022-07-15T05:43:02;16.27;;;14.27;;
27977;SDS011;15314;49.248;6.968;2022-07-15T05:44:03;14.88;;;13.68;;
27977;SDS011;15314;49.248;6.968;2022-07-15T05:45:04;15.10;;;14.00;;
27977;SDS011;15314;49.248;6.968;2022-07-15T05:46:05;14.00;;;12.90;;
27977;SDS011;15314;49.248;6.968;2022-07-15T05:47:06;14.48;;;13.07;;
27977;SDS011;15314;49.248;6.968;2022-07-15T05:48:06;14.32;;;13.35;;
27977;SDS011;15314;49.248;6.968;2022-07-15T05:49:08;14.02;;;13.07;;
27977;SDS011;15314;49.248;6.968;2022-07-15T05:50:10;15.95;;;14.48;;
27977;SDS011;15314;49.248;6.968;2022-07-15T05:51:10;15.25;;;14.32;;
27977;SDS011;15314;49.248;6.968;2022-07-15T05:52:11;15.25;;;14.15;;
27977;SDS011;15314;49.248;6.968;2022-07-15T05:53:12;15.15;;;14.10;;
27977;SDS011;15314;49.248;6.968;2022-07-15T05:54:12;14.13;;;13.20;;
27977;SDS011;15314;49.248;6.968;2022-07-15T05:55:14;14.60;;;13.50;;
27977;SDS011;15314;49.248;6.968;2022-07-15T05:56:15;14.68;;;13.73;;
27977;SDS011;15314;49.248;6.968;2022-07-15T05:57:16;15.30;;;13.70;;
27977;SDS011;15314;49.248;6.968;2022-07-15T05:58:16;15.48;;;14.02;;